O'mega — SVJN — position and weather

sailwx.info

Track history (hours):
 
Tides and Currents Weather Stations Pressure Air Temp Water Temp Dewpoint Dewpoint Depression Visibility Wind Speed Wind Dir Waves Ship Positions

O'mega

Last reported at 2018-Jul-17 13:28 UTC. Time now 2018-Jul-17 13:29 UTC.
Position N 40°50' E 014°14'.

Length 80 m; draft 4.4 m.

Type: Passenger vessel. MMSI: 240183000.

Date/timePositionNaut miles runAvg speedWind from/ knotsBaromVisibWave heightAir tempDewpointWater temp
2018-Jul-17 13:28N 40°50' E 014°14'0 0.0
2018-Jul-17 12:58N 40°50' E 014°14'0 0.0
2018-Jul-17 12:28N 40°50' E 014°14'0 0.0
2018-Jul-17 11:58N 40°50' E 014°14'0 0.0
2018-Jul-17 11:22N 40°50' E 014°14'0 0.0
2018-Jul-17 10:58N 40°50' E 014°14'0 0.0
2018-Jul-17 10:28N 40°50' E 014°14'0 0.0
2018-Jul-17 09:58N 40°50' E 014°14'0 0.0
2018-Jul-17 09:28N 40°50' E 014°14'0 0.0
2018-Jul-17 08:58N 40°50' E 014°14'0 0.0
2018-Jul-17 08:28N 40°50' E 014°14'0 0.0
2018-Jul-17 07:58N 40°50' E 014°14'0 0.0
2018-Jul-17 07:28N 40°50' E 014°14'0 0.1
2018-Jul-17 07:00N 40°50' E 014°14'2 4.2
2018-Jul-17 06:31N 40°48' E 014°13'611.6
2018-Jul-17 06:00N 40°43' E 014°09'612.1
2018-Jul-17 05:30N 40°39' E 014°02'612.2
2018-Jul-17 05:00N 40°36' E 013°56'612.0
2018-Jul-17 04:30N 40°33' E 013°49'510.8
2018-Jul-17 04:00N 40°31' E 013°42'9 4.6
2018-Jul-17 02:04N 40°39' E 013°48'1 8.3
2018-Jul-17 02:00N 40°38' E 013°49'4 8.6
2018-Jul-17 01:30N 40°35' E 013°52'4 8.6
2018-Jul-17 01:01N 40°31' E 013°55'6 9.5
2018-Jul-17 00:20N 40°26' E 013°59'1110.2
2018-Jul-16 23:14N 40°16' E 014°07'410.1
2018-Jul-16 22:51N 40°13' E 014°10'4 9.9
2018-Jul-16 22:29N 40°10' E 014°13'5 9.9
2018-Jul-16 22:00N 40°06' E 014°16'6 9.9
2018-Jul-16 21:27N 40°02' E 014°20'4 9.8
2018-Jul-16 21:01N 39°58' E 014°23'6 9.7
2018-Jul-16 20:23N 39°53' E 014°27'4 9.6
2018-Jul-16 20:00N 39°50' E 014°30'5 9.7
2018-Jul-16 19:28N 39°45' E 014°33'6 9.7
2018-Jul-16 18:48N 39°40' E 014°38'34 9.8
2018-Jul-16 15:18N 39°11' E 015°02'64 9.3
2018-Jul-16 08:29N 38°14' E 015°37'612.7
2018-Jul-16 08:00N 38°08' E 015°36'1212.0
2018-Jul-16 07:00N 37°56' E 015°38'612.3
2018-Jul-16 06:29N 37°52' E 015°45'712.9
2018-Jul-16 05:55N 37°50' E 015°54'42811.5
2018-Jul-14 16:45N 37°11' E 024°51'312.9
2018-Jul-14 16:30N 37°13' E 024°54'713.1
2018-Jul-14 15:57N 37°16' E 025°03'612.8
2018-Jul-14 15:27N 37°19' E 025°10'712.8
2018-Jul-14 14:56N 37°22' E 025°17'5 3.9
2018-Jul-14 13:40N 37°25' E 025°22'0 0.1
2018-Jul-14 13:22N 37°25' E 025°22'0 0.2
2018-Jul-14 12:58N 37°25' E 025°22'0 0.0
2018-Jul-14 12:28N 37°25' E 025°22'0 0.1
2018-Jul-14 11:58N 37°25' E 025°22'0 0.0
2018-Jul-14 11:25N 37°25' E 025°22'0 0.0
2018-Jul-14 10:40N 37°25' E 025°22'0 0.0
2018-Jul-14 10:16N 37°25' E 025°22'0 0.1
2018-Jul-14 09:58N 37°25' E 025°22'0 0.0
2018-Jul-14 09:10N 37°25' E 025°22'0 0.1
2018-Jul-14 08:52N 37°25' E 025°22'0 0.0
2018-Jul-14 08:22N 37°25' E 025°22'0 0.1
2018-Jul-14 07:46N 37°25' E 025°22'0 0.1
2018-Jul-14 07:16N 37°25' E 025°22'0 0.0
2018-Jul-14 06:49N 37°25' E 025°22'0 0.0
2018-Jul-14 06:19N 37°25' E 025°22'0 0.1
2018-Jul-14 05:52N 37°25' E 025°22'0 0.2
2018-Jul-14 05:28N 37°25' E 025°22'0 0.1
2018-Jul-14 04:58N 37°25' E 025°22'0 0.0
2018-Jul-14 04:07N 37°25' E 025°22'0 0.1
2018-Jul-14 03:58N 37°25' E 025°22'0 0.0
2018-Jul-14 03:25N 37°25' E 025°22'0 0.0
2018-Jul-14 02:55N 37°25' E 025°22'0 0.0
2018-Jul-14 02:28N 37°25' E 025°22'0 0.0
2018-Jul-14 01:58N 37°25' E 025°22'0 0.0
2018-Jul-14 01:13N 37°25' E 025°22'0 0.0
2018-Jul-14 00:55N 37°25' E 025°22'0 0.0
2018-Jul-14 00:22N 37°25' E 025°22'0 0.0
2018-Jul-13 23:55N 37°25' E 025°22'0 0.1
2018-Jul-13 23:28N 37°25' E 025°22'0 0.0
2018-Jul-13 22:55N 37°25' E 025°22'0 0.0
2018-Jul-13 22:28N 37°25' E 025°22'0 0.0
2018-Jul-13 21:49N 37°25' E 025°22'0 0.1
2018-Jul-13 21:28N 37°25' E 025°22'0 0.1
2018-Jul-13 20:58N 37°25' E 025°22'0 0.0
2018-Jul-13 20:28N 37°25' E 025°22'0 0.0
2018-Jul-13 19:58N 37°25' E 025°22'0 0.0
2018-Jul-13 19:22N 37°25' E 025°22'0 0.0
2018-Jul-13 18:58N 37°25' E 025°22'0 0.0
2018-Jul-13 18:28N 37°25' E 025°22'0 0.0
2018-Jul-13 17:58N 37°25' E 025°22'0 0.0
2018-Jul-13 17:04N 37°25' E 025°22'0 0.1
2018-Jul-13 16:52N 37°25' E 025°22'0 0.0
2018-Jul-13 16:22N 37°25' E 025°22'0 0.0
2018-Jul-13 15:52N 37°25' E 025°22'0 0.0
2018-Jul-13 15:25N 37°25' E 025°22'0 0.0
2018-Jul-13 14:58N 37°25' E 025°22'0 0.0
2018-Jul-13 13:46N 37°25' E 025°22'0 0.1
2018-Jul-13 13:19N 37°25' E 025°22'0 0.1
2018-Jul-13 12:55N 37°25' E 025°22'0 0.0
2018-Jul-13 12:28N 37°25' E 025°22'0 0.0
2018-Jul-13 11:49N 37°25' E 025°22'0 0.1
2018-Jul-13 11:28N 37°25' E 025°22'0 0.0
2018-Jul-13 10:46N 37°25' E 025°22'0 0.0
2018-Jul-13 10:22N 37°25' E 025°22'0 0.0
2018-Jul-13 08:34N 37°25' E 025°22'0 0.0
2018-Jul-13 08:19N 37°25' E 025°22'0 0.1
2018-Jul-13 07:52N 37°25' E 025°22'0 0.0
2018-Jul-13 07:04N 37°25' E 025°22'0 0.0
2018-Jul-13 06:49N 37°25' E 025°22'0 0.0
2018-Jul-13 06:28N 37°25' E 025°22'0 0.0
2018-Jul-13 05:49N 37°25' E 025°22'0 0.1
2018-Jul-13 05:25N 37°25' E 025°22'0 0.1
2018-Jul-13 04:58N 37°25' E 025°22'0 0.0
2018-Jul-13 04:25N 37°25' E 025°22'0 0.1
2018-Jul-13 03:49N 37°25' E 025°22'0 0.0
2018-Jul-13 03:16N 37°25' E 025°22'0 0.0
2018-Jul-13 02:49N 37°25' E 025°22'0 0.0
2018-Jul-13 02:22N 37°25' E 025°22'0 0.0
2018-Jul-13 01:46N 37°25' E 025°22'0 0.0
2018-Jul-13 01:04N 37°25' E 025°22'0 0.1
2018-Jul-13 00:55N 37°25' E 025°22'0 0.0
2018-Jul-13 00:25N 37°25' E 025°22'0 0.0
2018-Jul-12 23:55N 37°25' E 025°22'0 0.0
2018-Jul-12 22:46N 37°25' E 025°22'0 0.0
2018-Jul-12 21:58N 37°25' E 025°22'0 0.0
2018-Jul-12 21:25N 37°25' E 025°22'0 0.0
2018-Jul-12 20:52N 37°25' E 025°22'0 0.1
2018-Jul-12 20:22N 37°25' E 025°22'0 0.0
2018-Jul-12 19:52N 37°25' E 025°22'0 0.0
2018-Jul-12 19:13N 37°25' E 025°22'0 0.1
2018-Jul-12 18:58N 37°25' E 025°22'0 0.0
2018-Jul-12 18:22N 37°25' E 025°22'0 0.1
2018-Jul-12 17:52N 37°25' E 025°22'0 0.1
2018-Jul-12 17:16N 37°25' E 025°22'0 0.0
2018-Jul-12 16:46N 37°25' E 025°22'0 0.1
2018-Jul-12 16:28N 37°25' E 025°22'0 0.1
2018-Jul-12 15:52N 37°25' E 025°22'0 0.2
2018-Jul-12 15:28N 37°25' E 025°22'0 0.1
2018-Jul-12 14:55N 37°25' E 025°22'0 0.1
2018-Jul-12 14:22N 37°25' E 025°22'0 0.0
2018-Jul-12 13:55N 37°25' E 025°22'0 0.1
2018-Jul-12 12:55N 37°25' E 025°22'0 0.0
2018-Jul-12 12:28N 37°25' E 025°22'0 0.0
2018-Jul-12 11:58N 37°25' E 025°22'0 0.1
2018-Jul-12 11:28N 37°25' E 025°22'0 0.0
2018-Jul-12 10:58N 37°25' E 025°22'0 0.1
2018-Jul-12 10:22N 37°25' E 025°22'0 0.1
2018-Jul-12 09:55N 37°25' E 025°22'0 0.0
2018-Jul-12 09:25N 37°25' E 025°22'0 0.0
2018-Jul-12 08:13N 37°25' E 025°22'0 0.2
2018-Jul-12 07:55N 37°25' E 025°22'0 0.0
2018-Jul-12 07:19N 37°25' E 025°22'0 0.1
2018-Jul-12 06:55N 37°25' E 025°22'0 0.0
2018-Jul-12 06:28N 37°25' E 025°22'0 0.1
2018-Jul-12 05:58N 37°25' E 025°22'0 0.0
2018-Jul-12 05:25N 37°25' E 025°22'0 0.0
2018-Jul-12 04:22N 37°25' E 025°22'0 0.0
2018-Jul-12 03:55N 37°25' E 025°22'0 0.0
2018-Jul-12 01:55N 37°25' E 025°22'0 0.0
2018-Jul-12 00:28N 37°25' E 025°22'0 0.0
2018-Jul-11 23:58N 37°25' E 025°22'0 0.0
2018-Jul-11 23:22N 37°25' E 025°22'0 0.0
2018-Jul-11 22:37N 37°25' E 025°22'0 0.1
2018-Jul-11 22:19N 37°25' E 025°22'0 0.0
2018-Jul-11 21:49N 37°25' E 025°22'0 0.0
2018-Jul-11 21:19N 37°25' E 025°22'0 0.0
2018-Jul-11 20:52N 37°25' E 025°22'0 0.0
2018-Jul-11 20:28N 37°25' E 025°22'0 0.0
2018-Jul-11 19:40N 37°25' E 025°22'0 0.0
2018-Jul-11 19:25N 37°25' E 025°22'0 0.1
2018-Jul-11 18:58N 37°25' E 025°22'0 0.0
2018-Jul-11 18:28N 37°25' E 025°22'0 0.0
2018-Jul-11 17:22N 37°25' E 025°22'0 0.0
2018-Jul-11 16:58N 37°25' E 025°22'0 0.0
2018-Jul-11 16:19N 37°25' E 025°22'0 0.0
2018-Jul-11 15:58N 37°25' E 025°22'0 0.0
2018-Jul-11 15:28N 37°25' E 025°22'0 0.0
2018-Jul-11 14:55N 37°25' E 025°22'0 0.1
2018-Jul-11 14:28N 37°25' E 025°22'0 0.0
2018-Jul-11 13:58N 37°25' E 025°22'0 0.0
2018-Jul-11 13:25N 37°25' E 025°22'0 0.0
2018-Jul-11 12:37N 37°25' E 025°22'0 0.2
2018-Jul-11 12:28N 37°25' E 025°22'0 0.0
2018-Jul-11 11:34N 37°25' E 025°22'0 0.1
2018-Jul-11 11:28N 37°25' E 025°22'0 0.0
2018-Jul-11 10:55N 37°25' E 025°22'0 0.1
2018-Jul-11 10:13N 37°25' E 025°22'0 0.1
2018-Jul-11 09:58N 37°25' E 025°22'0 0.0
2018-Jul-11 09:25N 37°25' E 025°22'0 0.0
2018-Jul-11 08:43N 37°25' E 025°22'0 0.0
2018-Jul-11 08:19N 37°25' E 025°22'0 0.0
2018-Jul-11 07:58N 37°25' E 025°22'0 0.0
2018-Jul-11 07:25N 37°25' E 025°22'0 0.0
2018-Jul-11 06:58N 37°25' E 025°22'0 0.0
2018-Jul-11 06:22N 37°25' E 025°22'0 0.0
2018-Jul-11 05:55N 37°25' E 025°22'0 0.0
2018-Jul-11 05:19N 37°25' E 025°22'0 0.0
2018-Jul-11 04:37N 37°25' E 025°22'0 0.0
2018-Jul-11 04:28N 37°25' E 025°22'0 0.0
2018-Jul-11 03:58N 37°25' E 025°22'0 0.0
2018-Jul-11 03:25N 37°25' E 025°22'0 0.0
2018-Jul-11 02:58N 37°25' E 025°22'0 0.0
2018-Jul-11 02:22N 37°25' E 025°22'0 0.0
2018-Jul-11 01:55N 37°25' E 025°22'0 0.0
2018-Jul-11 01:28N 37°25' E 025°22'0 0.0
2018-Jul-11 00:58N 37°25' E 025°22'0 0.0
2018-Jul-11 00:28N 37°25' E 025°22'0 0.0
2018-Jul-10 23:55N 37°25' E 025°22'0 0.0
2018-Jul-10 23:28N 37°25' E 025°22'0 0.0
2018-Jul-10 22:40N 37°25' E 025°22'0 0.0
2018-Jul-10 22:28N 37°25' E 025°22'0 0.0
2018-Jul-10 21:58N 37°25' E 025°22'0 0.0
2018-Jul-10 21:28N 37°25' E 025°22'0 0.0
2018-Jul-10 20:58N 37°25' E 025°22'0 0.0
2018-Jul-10 20:25N 37°25' E 025°22'0 0.0
2018-Jul-10 19:46N 37°25' E 025°22'0 0.0
2018-Jul-10 19:22N 37°25' E 025°22'0 0.0
2018-Jul-10 18:55N 37°25' E 025°22'0 0.0
2018-Jul-10 18:16N 37°25' E 025°22'0 0.0
2018-Jul-10 17:58N 37°25' E 025°22'0 0.0
2018-Jul-10 17:28N 37°25' E 025°22'0 0.1
2018-Jul-10 16:58N 37°25' E 025°22'0 0.0
2018-Jul-10 16:22N 37°25' E 025°22'0 0.0
2018-Jul-10 15:58N 37°25' E 025°22'0 0.0
2018-Jul-10 15:28N 37°25' E 025°22'0 0.0
2018-Jul-10 14:46N 37°25' E 025°22'0 0.1
2018-Jul-10 14:28N 37°25' E 025°22'0 0.0
2018-Jul-10 13:58N 37°25' E 025°22'0 0.0
2018-Jul-10 13:25N 37°25' E 025°22'0 0.1
2018-Jul-10 12:58N 37°25' E 025°22'0 0.5
2018-Jul-10 12:28N 37°25' E 025°23'0 0.0
2018-Jul-10 11:49N 37°25' E 025°23'0 0.0
2018-Jul-10 11:28N 37°25' E 025°23'0 0.1
2018-Jul-10 10:58N 37°25' E 025°23'0 0.1
2018-Jul-10 10:25N 37°25' E 025°23'0 0.1
2018-Jul-10 09:58N 37°25' E 025°23'0 0.1
2018-Jul-10 09:28N 37°25' E 025°23'0 0.0
2018-Jul-10 08:55N 37°25' E 025°23'0 0.0
2018-Jul-10 08:16N 37°25' E 025°23'0 0.0
2018-Jul-10 07:58N 37°25' E 025°23'0 0.0
2018-Jul-10 07:22N 37°25' E 025°23'0 0.1
2018-Jul-10 06:52N 37°25' E 025°23'0 0.1
2018-Jul-10 06:25N 37°25' E 025°23'0 0.0
2018-Jul-10 05:55N 37°25' E 025°23'0 0.1
2018-Jul-10 05:25N 37°25' E 025°23'0 0.1
2018-Jul-10 04:58N 37°25' E 025°23'0 0.0
2018-Jul-10 04:28N 37°25' E 025°23'0 0.0
2018-Jul-10 03:46N 37°25' E 025°23'0 0.0
2018-Jul-10 03:22N 37°25' E 025°23'0 0.0
2018-Jul-10 01:58N 37°25' E 025°23'0 0.0
2018-Jul-10 01:22N 37°25' E 025°23'0 0.0
2018-Jul-10 00:58N 37°25' E 025°23'0 0.0
2018-Jul-10 00:25N 37°25' E 025°23'0 0.0
2018-Jul-09 23:55N 37°25' E 025°23'0 0.0
2018-Jul-09 23:25N 37°25' E 025°23'0 0.0
2018-Jul-09 22:55N 37°25' E 025°23'0 0.0
2018-Jul-09 22:28N 37°25' E 025°23'0 0.0
2018-Jul-09 21:58N 37°25' E 025°23'0 0.0
2018-Jul-09 21:28N 37°25' E 025°23'0 0.0
2018-Jul-09 20:55N 37°25' E 025°23'0 0.0
2018-Jul-09 20:28N 37°25' E 025°23'0 0.0
2018-Jul-09 19:55N 37°25' E 025°23'0 0.1
2018-Jul-09 19:28N 37°25' E 025°23'0 0.0
2018-Jul-09 18:58N 37°25' E 025°23'0 0.0
2018-Jul-09 18:28N 37°25' E 025°23'0 0.0
2018-Jul-09 17:55N 37°25' E 025°23'0 0.0
2018-Jul-09 17:10N 37°25' E 025°23'0 0.0
2018-Jul-09 16:46N 37°25' E 025°23'0 0.0
2018-Jul-09 15:49N 37°25' E 025°23'0 0.0
2018-Jul-09 15:25N 37°25' E 025°23'0 0.0
2018-Jul-09 14:52N 37°25' E 025°23'0 0.0
2018-Jul-09 14:28N 37°25' E 025°23'0 0.0
2018-Jul-09 13:58N 37°25' E 025°23'0 0.0
2018-Jul-09 13:22N 37°25' E 025°23'0 0.1
2018-Jul-09 12:58N 37°25' E 025°23'0 0.0
2018-Jul-09 12:19N 37°25' E 025°23'0 0.0
2018-Jul-09 11:49N 37°25' E 025°23'0 0.0
2018-Jul-09 11:25N 37°25' E 025°23'0 0.0
2018-Jul-09 10:52N 37°25' E 025°23'0 0.0
2018-Jul-09 10:01N 37°25' E 025°23'0 0.3
2018-Jul-09 09:55N 37°25' E 025°23'0 0.0
2018-Jul-09 09:22N 37°25' E 025°23'0 0.1
2018-Jul-09 08:46N 37°25' E 025°23'0 0.1
2018-Jul-09 08:28N 37°25' E 025°23'0 0.0
2018-Jul-09 07:58N 37°25' E 025°23'0 0.0
2018-Jul-09 07:28N 37°25' E 025°23'0 0.0
2018-Jul-09 06:58N 37°25' E 025°23'0 0.0
2018-Jul-09 06:25N 37°25' E 025°23'0 0.1
2018-Jul-09 06:01N 37°25' E 025°23'4 7.7
2018-Jul-09 05:30N 37°21' E 025°21'611.6
2018-Jul-09 05:01N 37°16' E 025°18'611.5
2018-Jul-09 04:30N 37°10' E 025°15'2 4.0
2018-Jul-09 03:54N 37°08' E 025°14'0 0.1
2018-Jul-09 03:30N 37°08' E 025°14'0 0.0
2018-Jul-09 01:42N 37°08' E 025°14'0 0.0
2018-Jul-09 00:42N 37°08' E 025°14'0 0.0
2018-Jul-09 00:12N 37°08' E 025°14'0 0.0
2018-Jul-08 23:54N 37°08' E 025°14'0 0.1
2018-Jul-08 23:30N 37°08' E 025°14'0 0.0
2018-Jul-08 23:00N 37°08' E 025°14'0 0.0
2018-Jul-08 22:30N 37°08' E 025°14'0 0.0
2018-Jul-08 21:54N 37°08' E 025°14'0 0.0
2018-Jul-08 21:18N 37°08' E 025°14'0 0.0
2018-Jul-08 19:48N 37°08' E 025°14'0 0.0
2018-Jul-08 18:18N 37°08' E 025°14'0 0.0
2018-Jul-08 18:00N 37°08' E 025°14'0 0.0
2018-Jul-08 17:18N 37°08' E 025°14'0 0.0
2018-Jul-08 17:00N 37°08' E 025°14'0 0.0
2018-Jul-08 16:30N 37°08' E 025°14'0 0.0
2018-Jul-08 16:00N 37°08' E 025°14'0 0.0
2018-Jul-08 15:30N 37°08' E 025°14'0 0.0
2018-Jul-08 15:00N 37°08' E 025°14'0 0.0
2018-Jul-08 14:30N 37°08' E 025°14'0 0.0
2018-Jul-08 14:00N 37°08' E 025°14'0 0.0
2018-Jul-08 13:30N 37°08' E 025°14'0 0.1
2018-Jul-08 12:54N 37°08' E 025°14'0 0.0
2018-Jul-08 12:24N 37°08' E 025°14'0 0.0
2018-Jul-08 11:54N 37°08' E 025°14'0 0.0
2018-Jul-08 11:24N 37°08' E 025°14'0 0.1
2018-Jul-08 11:00N 37°08' E 025°14'0 0.0
2018-Jul-08 10:24N 37°08' E 025°14'0 0.0
2018-Jul-08 09:54N 37°08' E 025°14'0 0.1
2018-Jul-08 09:30N 37°08' E 025°14'0 0.0
2018-Jul-08 08:54N 37°08' E 025°14'0 0.0
2018-Jul-08 08:24N 37°08' E 025°14'0 0.0
2018-Jul-08 07:54N 37°08' E 025°14'0 0.0
2018-Jul-08 07:24N 37°08' E 025°14'0 0.0
2018-Jul-08 06:54N 37°08' E 025°14'0 0.1
2018-Jul-08 06:30N 37°08' E 025°14'0 0.4
2018-Jul-08 05:58N 37°08' E 025°14'510.6
2018-Jul-08 05:30N 37°11' E 025°19'611.7
2018-Jul-08 04:59N 37°13' E 025°26'11 9.6
2018-Jul-08 03:52N 37°07' E 025°38'  
Track history (hours):
 
Tides and Currents Weather Stations Pressure Air Temp Water Temp Dewpoint Dewpoint Depression Visibility Wind Speed Wind Dir Waves Ship Positions

O'mega

Last reported at 2018-Jul-17 13:28 UTC. Time now 2018-Jul-17 13:29 UTC.
Position N 40°50' E 014°14'.

Length 80 m; draft 4.4 m.

Type: Passenger vessel. MMSI: 240183000.

Date/timePositionNaut miles runAvg speedWind from/ knotsBaromVisibWave heightAir tempDewpointWater temp
2018-Jul-17 13:28N 40°50' E 014°14'0 0.0
2018-Jul-17 12:58N 40°50' E 014°14'0 0.0
2018-Jul-17 12:28N 40°50' E 014°14'0 0.0
2018-Jul-17 11:58N 40°50' E 014°14'0 0.0
2018-Jul-17 11:22N 40°50' E 014°14'0 0.0
2018-Jul-17 10:58N 40°50' E 014°14'0 0.0
2018-Jul-17 10:28N 40°50' E 014°14'0 0.0
2018-Jul-17 09:58N 40°50' E 014°14'0 0.0
2018-Jul-17 09:28N 40°50' E 014°14'0 0.0
2018-Jul-17 08:58N 40°50' E 014°14'0 0.0
2018-Jul-17 08:28N 40°50' E 014°14'0 0.0
2018-Jul-17 07:58N 40°50' E 014°14'0 0.0
2018-Jul-17 07:28N 40°50' E 014°14'0 0.1
2018-Jul-17 07:00N 40°50' E 014°14'2 4.2
2018-Jul-17 06:31N 40°48' E 014°13'611.6
2018-Jul-17 06:00N 40°43' E 014°09'612.1
2018-Jul-17 05:30N 40°39' E 014°02'612.2
2018-Jul-17 05:00N 40°36' E 013°56'612.0
2018-Jul-17 04:30N 40°33' E 013°49'510.8
2018-Jul-17 04:00N 40°31' E 013°42'9 4.6
2018-Jul-17 02:04N 40°39' E 013°48'1 8.3
2018-Jul-17 02:00N 40°38' E 013°49'4 8.6
2018-Jul-17 01:30N 40°35' E 013°52'4 8.6
2018-Jul-17 01:01N 40°31' E 013°55'6 9.5
2018-Jul-17 00:20N 40°26' E 013°59'1110.2
2018-Jul-16 23:14N 40°16' E 014°07'410.1
2018-Jul-16 22:51N 40°13' E 014°10'4 9.9
2018-Jul-16 22:29N 40°10' E 014°13'5 9.9
2018-Jul-16 22:00N 40°06' E 014°16'6 9.9
2018-Jul-16 21:27N 40°02' E 014°20'4 9.8
2018-Jul-16 21:01N 39°58' E 014°23'6 9.7
2018-Jul-16 20:23N 39°53' E 014°27'4 9.6
2018-Jul-16 20:00N 39°50' E 014°30'5 9.7
2018-Jul-16 19:28N 39°45' E 014°33'6 9.7
2018-Jul-16 18:48N 39°40' E 014°38'34 9.8
2018-Jul-16 15:18N 39°11' E 015°02'64 9.3
2018-Jul-16 08:29N 38°14' E 015°37'612.7
2018-Jul-16 08:00N 38°08' E 015°36'1212.0
2018-Jul-16 07:00N 37°56' E 015°38'612.3
2018-Jul-16 06:29N 37°52' E 015°45'712.9
2018-Jul-16 05:55N 37°50' E 015°54'42811.5
2018-Jul-14 16:45N 37°11' E 024°51'312.9
2018-Jul-14 16:30N 37°13' E 024°54'713.1
2018-Jul-14 15:57N 37°16' E 025°03'612.8
2018-Jul-14 15:27N 37°19' E 025°10'712.8
2018-Jul-14 14:56N 37°22' E 025°17'5 3.9
2018-Jul-14 13:40N 37°25' E 025°22'0 0.1
2018-Jul-14 13:22N 37°25' E 025°22'0 0.2
2018-Jul-14 12:58N 37°25' E 025°22'0 0.0
2018-Jul-14 12:28N 37°25' E 025°22'0 0.1
2018-Jul-14 11:58N 37°25' E 025°22'0 0.0
2018-Jul-14 11:25N 37°25' E 025°22'0 0.0
2018-Jul-14 10:40N 37°25' E 025°22'0 0.0
2018-Jul-14 10:16N 37°25' E 025°22'0 0.1
2018-Jul-14 09:58N 37°25' E 025°22'0 0.0
2018-Jul-14 09:10N 37°25' E 025°22'0 0.1
2018-Jul-14 08:52N 37°25' E 025°22'0 0.0
2018-Jul-14 08:22N 37°25' E 025°22'0 0.1
2018-Jul-14 07:46N 37°25' E 025°22'0 0.1
2018-Jul-14 07:16N 37°25' E 025°22'0 0.0
2018-Jul-14 06:49N 37°25' E 025°22'0 0.0
2018-Jul-14 06:19N 37°25' E 025°22'0 0.1
2018-Jul-14 05:52N 37°25' E 025°22'0 0.2
2018-Jul-14 05:28N 37°25' E 025°22'0 0.1
2018-Jul-14 04:58N 37°25' E 025°22'0 0.0
2018-Jul-14 04:07N 37°25' E 025°22'0 0.1
2018-Jul-14 03:58N 37°25' E 025°22'0 0.0
2018-Jul-14 03:25N 37°25' E 025°22'0 0.0
2018-Jul-14 02:55N 37°25' E 025°22'0 0.0
2018-Jul-14 02:28N 37°25' E 025°22'0 0.0
2018-Jul-14 01:58N 37°25' E 025°22'0 0.0
2018-Jul-14 01:13N 37°25' E 025°22'0 0.0
2018-Jul-14 00:55N 37°25' E 025°22'0 0.0
2018-Jul-14 00:22N 37°25' E 025°22'0 0.0
2018-Jul-13 23:55N 37°25' E 025°22'0 0.1
2018-Jul-13 23:28N 37°25' E 025°22'0 0.0
2018-Jul-13 22:55N 37°25' E 025°22'0 0.0
2018-Jul-13 22:28N 37°25' E 025°22'0 0.0
2018-Jul-13 21:49N 37°25' E 025°22'0 0.1
2018-Jul-13 21:28N 37°25' E 025°22'0 0.1
2018-Jul-13 20:58N 37°25' E 025°22'0 0.0
2018-Jul-13 20:28N 37°25' E 025°22'0 0.0
2018-Jul-13 19:58N 37°25' E 025°22'0 0.0
2018-Jul-13 19:22N 37°25' E 025°22'0 0.0
2018-Jul-13 18:58N 37°25' E 025°22'0 0.0
2018-Jul-13 18:28N 37°25' E 025°22'0 0.0
2018-Jul-13 17:58N 37°25' E 025°22'0 0.0
2018-Jul-13 17:04N 37°25' E 025°22'0 0.1
2018-Jul-13 16:52N 37°25' E 025°22'0 0.0
2018-Jul-13 16:22N 37°25' E 025°22'0 0.0
2018-Jul-13 15:52N 37°25' E 025°22'0 0.0
2018-Jul-13 15:25N 37°25' E 025°22'0 0.0
2018-Jul-13 14:58N 37°25' E 025°22'0 0.0
2018-Jul-13 13:46N 37°25' E 025°22'0 0.1
2018-Jul-13 13:19N 37°25' E 025°22'0 0.1
2018-Jul-13 12:55N 37°25' E 025°22'0 0.0
2018-Jul-13 12:28N 37°25' E 025°22'0 0.0
2018-Jul-13 11:49N 37°25' E 025°22'0 0.1
2018-Jul-13 11:28N 37°25' E 025°22'0 0.0
2018-Jul-13 10:46N 37°25' E 025°22'0 0.0
2018-Jul-13 10:22N 37°25' E 025°22'0 0.0
2018-Jul-13 08:34N 37°25' E 025°22'0 0.0
2018-Jul-13 08:19N 37°25' E 025°22'0 0.1
2018-Jul-13 07:52N 37°25' E 025°22'0 0.0
2018-Jul-13 07:04N 37°25' E 025°22'0 0.0
2018-Jul-13 06:49N 37°25' E 025°22'0 0.0
2018-Jul-13 06:28N 37°25' E 025°22'0 0.0
2018-Jul-13 05:49N 37°25' E 025°22'0 0.1
2018-Jul-13 05:25N 37°25' E 025°22'0 0.1
2018-Jul-13 04:58N 37°25' E 025°22'0 0.0
2018-Jul-13 04:25N 37°25' E 025°22'0 0.1
2018-Jul-13 03:49N 37°25' E 025°22'0 0.0
2018-Jul-13 03:16N 37°25' E 025°22'0 0.0
2018-Jul-13 02:49N 37°25' E 025°22'0 0.0
2018-Jul-13 02:22N 37°25' E 025°22'0 0.0
2018-Jul-13 01:46N 37°25' E 025°22'0 0.0
2018-Jul-13 01:04N 37°25' E 025°22'0 0.1
2018-Jul-13 00:55N 37°25' E 025°22'0 0.0
2018-Jul-13 00:25N 37°25' E 025°22'0 0.0
2018-Jul-12 23:55N 37°25' E 025°22'0 0.0
2018-Jul-12 22:46N 37°25' E 025°22'0 0.0
2018-Jul-12 21:58N 37°25' E 025°22'0 0.0
2018-Jul-12 21:25N 37°25' E 025°22'0 0.0
2018-Jul-12 20:52N 37°25' E 025°22'0 0.1
2018-Jul-12 20:22N 37°25' E 025°22'0 0.0
2018-Jul-12 19:52N 37°25' E 025°22'0 0.0
2018-Jul-12 19:13N 37°25' E 025°22'0 0.1
2018-Jul-12 18:58N 37°25' E 025°22'0 0.0
2018-Jul-12 18:22N 37°25' E 025°22'0 0.1
2018-Jul-12 17:52N 37°25' E 025°22'0 0.1
2018-Jul-12 17:16N 37°25' E 025°22'0 0.0
2018-Jul-12 16:46N 37°25' E 025°22'0 0.1
2018-Jul-12 16:28N 37°25' E 025°22'0 0.1
2018-Jul-12 15:52N 37°25' E 025°22'0 0.2
2018-Jul-12 15:28N 37°25' E 025°22'0 0.1
2018-Jul-12 14:55N 37°25' E 025°22'0 0.1
2018-Jul-12 14:22N 37°25' E 025°22'0 0.0
2018-Jul-12 13:55N 37°25' E 025°22'0 0.1
2018-Jul-12 12:55N 37°25' E 025°22'0 0.0
2018-Jul-12 12:28N 37°25' E 025°22'0 0.0
2018-Jul-12 11:58N 37°25' E 025°22'0 0.1
2018-Jul-12 11:28N 37°25' E 025°22'0 0.0
2018-Jul-12 10:58N 37°25' E 025°22'0 0.1
2018-Jul-12 10:22N 37°25' E 025°22'0 0.1
2018-Jul-12 09:55N 37°25' E 025°22'0 0.0
2018-Jul-12 09:25N 37°25' E 025°22'0 0.0
2018-Jul-12 08:13N 37°25' E 025°22'0 0.2
2018-Jul-12 07:55N 37°25' E 025°22'0 0.0
2018-Jul-12 07:19N 37°25' E 025°22'0 0.1
2018-Jul-12 06:55N 37°25' E 025°22'0 0.0
2018-Jul-12 06:28N 37°25' E 025°22'0 0.1
2018-Jul-12 05:58N 37°25' E 025°22'0 0.0
2018-Jul-12 05:25N 37°25' E 025°22'0 0.0
2018-Jul-12 04:22N 37°25' E 025°22'0 0.0
2018-Jul-12 03:55N 37°25' E 025°22'0 0.0
2018-Jul-12 01:55N 37°25' E 025°22'0 0.0
2018-Jul-12 00:28N 37°25' E 025°22'0 0.0
2018-Jul-11 23:58N 37°25' E 025°22'0 0.0
2018-Jul-11 23:22N 37°25' E 025°22'0 0.0
2018-Jul-11 22:37N 37°25' E 025°22'0 0.1
2018-Jul-11 22:19N 37°25' E 025°22'0 0.0
2018-Jul-11 21:49N 37°25' E 025°22'0 0.0
2018-Jul-11 21:19N 37°25' E 025°22'0 0.0
2018-Jul-11 20:52N 37°25' E 025°22'0 0.0
2018-Jul-11 20:28N 37°25' E 025°22'0 0.0
2018-Jul-11 19:40N 37°25' E 025°22'0 0.0
2018-Jul-11 19:25N 37°25' E 025°22'0 0.1
2018-Jul-11 18:58N 37°25' E 025°22'0 0.0
2018-Jul-11 18:28N 37°25' E 025°22'0 0.0
2018-Jul-11 17:22N 37°25' E 025°22'0 0.0
2018-Jul-11 16:58N 37°25' E 025°22'0 0.0
2018-Jul-11 16:19N 37°25' E 025°22'0 0.0
2018-Jul-11 15:58N 37°25' E 025°22'0 0.0
2018-Jul-11 15:28N 37°25' E 025°22'0 0.0
2018-Jul-11 14:55N 37°25' E 025°22'0 0.1
2018-Jul-11 14:28N 37°25' E 025°22'0 0.0
2018-Jul-11 13:58N 37°25' E 025°22'0 0.0
2018-Jul-11 13:25N 37°25' E 025°22'0 0.0
2018-Jul-11 12:37N 37°25' E 025°22'0 0.2
2018-Jul-11 12:28N 37°25' E 025°22'0 0.0
2018-Jul-11 11:34N 37°25' E 025°22'0 0.1
2018-Jul-11 11:28N 37°25' E 025°22'0 0.0
2018-Jul-11 10:55N 37°25' E 025°22'0 0.1
2018-Jul-11 10:13N 37°25' E 025°22'0 0.1
2018-Jul-11 09:58N 37°25' E 025°22'0 0.0
2018-Jul-11 09:25N 37°25' E 025°22'0 0.0
2018-Jul-11 08:43N 37°25' E 025°22'0 0.0
2018-Jul-11 08:19N 37°25' E 025°22'0 0.0
2018-Jul-11 07:58N 37°25' E 025°22'0 0.0
2018-Jul-11 07:25N 37°25' E 025°22'0 0.0
2018-Jul-11 06:58N 37°25' E 025°22'0 0.0
2018-Jul-11 06:22N 37°25' E 025°22'0 0.0
2018-Jul-11 05:55N 37°25' E 025°22'0 0.0
2018-Jul-11 05:19N 37°25' E 025°22'0 0.0
2018-Jul-11 04:37N 37°25' E 025°22'0 0.0
2018-Jul-11 04:28N 37°25' E 025°22'0 0.0
2018-Jul-11 03:58N 37°25' E 025°22'0 0.0
2018-Jul-11 03:25N 37°25' E 025°22'0 0.0
2018-Jul-11 02:58N 37°25' E 025°22'0 0.0
2018-Jul-11 02:22N 37°25' E 025°22'0 0.0
2018-Jul-11 01:55N 37°25' E 025°22'0 0.0
2018-Jul-11 01:28N 37°25' E 025°22'0 0.0
2018-Jul-11 00:58N 37°25' E 025°22'0 0.0
2018-Jul-11 00:28N 37°25' E 025°22'0 0.0
2018-Jul-10 23:55N 37°25' E 025°22'0 0.0
2018-Jul-10 23:28N 37°25' E 025°22'0 0.0
2018-Jul-10 22:40N 37°25' E 025°22'0 0.0
2018-Jul-10 22:28N 37°25' E 025°22'0 0.0
2018-Jul-10 21:58N 37°25' E 025°22'0 0.0
2018-Jul-10 21:28N 37°25' E 025°22'0 0.0
2018-Jul-10 20:58N 37°25' E 025°22'0 0.0
2018-Jul-10 20:25N 37°25' E 025°22'0 0.0
2018-Jul-10 19:46N 37°25' E 025°22'0 0.0
2018-Jul-10 19:22N 37°25' E 025°22'0 0.0
2018-Jul-10 18:55N 37°25' E 025°22'0 0.0
2018-Jul-10 18:16N 37°25' E 025°22'0 0.0
2018-Jul-10 17:58N 37°25' E 025°22'0 0.0
2018-Jul-10 17:28N 37°25' E 025°22'0 0.1
2018-Jul-10 16:58N 37°25' E 025°22'0 0.0
2018-Jul-10 16:22N 37°25' E 025°22'0 0.0
2018-Jul-10 15:58N 37°25' E 025°22'0 0.0
2018-Jul-10 15:28N 37°25' E 025°22'0 0.0
2018-Jul-10 14:46N 37°25' E 025°22'0 0.1
2018-Jul-10 14:28N 37°25' E 025°22'0 0.0
2018-Jul-10 13:58N 37°25' E 025°22'0 0.0
2018-Jul-10 13:25N 37°25' E 025°22'0 0.1
2018-Jul-10 12:58N 37°25' E 025°22'0 0.5
2018-Jul-10 12:28N 37°25' E 025°23'0 0.0
2018-Jul-10 11:49N 37°25' E 025°23'0 0.0
2018-Jul-10 11:28N 37°25' E 025°23'0 0.1
2018-Jul-10 10:58N 37°25' E 025°23'0 0.1
2018-Jul-10 10:25N 37°25' E 025°23'0 0.1
2018-Jul-10 09:58N 37°25' E 025°23'0 0.1
2018-Jul-10 09:28N 37°25' E 025°23'0 0.0
2018-Jul-10 08:55N 37°25' E 025°23'0 0.0
2018-Jul-10 08:16N 37°25' E 025°23'0 0.0
2018-Jul-10 07:58N 37°25' E 025°23'0 0.0
2018-Jul-10 07:22N 37°25' E 025°23'0 0.1
2018-Jul-10 06:52N 37°25' E 025°23'0 0.1
2018-Jul-10 06:25N 37°25' E 025°23'0 0.0
2018-Jul-10 05:55N 37°25' E 025°23'0 0.1
2018-Jul-10 05:25N 37°25' E 025°23'0 0.1
2018-Jul-10 04:58N 37°25' E 025°23'0 0.0
2018-Jul-10 04:28N 37°25' E 025°23'0 0.0
2018-Jul-10 03:46N 37°25' E 025°23'0 0.0
2018-Jul-10 03:22N 37°25' E 025°23'0 0.0
2018-Jul-10 01:58N 37°25' E 025°23'0 0.0
2018-Jul-10 01:22N 37°25' E 025°23'0 0.0
2018-Jul-10 00:58N 37°25' E 025°23'0 0.0
2018-Jul-10 00:25N 37°25' E 025°23'0 0.0
2018-Jul-09 23:55N 37°25' E 025°23'0 0.0
2018-Jul-09 23:25N 37°25' E 025°23'0 0.0
2018-Jul-09 22:55N 37°25' E 025°23'0 0.0
2018-Jul-09 22:28N 37°25' E 025°23'0 0.0
2018-Jul-09 21:58N 37°25' E 025°23'0 0.0
2018-Jul-09 21:28N 37°25' E 025°23'0 0.0
2018-Jul-09 20:55N 37°25' E 025°23'0 0.0
2018-Jul-09 20:28N 37°25' E 025°23'0 0.0
2018-Jul-09 19:55N 37°25' E 025°23'0 0.1
2018-Jul-09 19:28N 37°25' E 025°23'0 0.0
2018-Jul-09 18:58N 37°25' E 025°23'0 0.0
2018-Jul-09 18:28N 37°25' E 025°23'0 0.0
2018-Jul-09 17:55N 37°25' E 025°23'0 0.0
2018-Jul-09 17:10N 37°25' E 025°23'0 0.0
2018-Jul-09 16:46N 37°25' E 025°23'0 0.0
2018-Jul-09 15:49N 37°25' E 025°23'0 0.0
2018-Jul-09 15:25N 37°25' E 025°23'0 0.0
2018-Jul-09 14:52N 37°25' E 025°23'0 0.0
2018-Jul-09 14:28N 37°25' E 025°23'0 0.0
2018-Jul-09 13:58N 37°25' E 025°23'0 0.0
2018-Jul-09 13:22N 37°25' E 025°23'0 0.1
2018-Jul-09 12:58N 37°25' E 025°23'0 0.0
2018-Jul-09 12:19N 37°25' E 025°23'0 0.0
2018-Jul-09 11:49N 37°25' E 025°23'0 0.0
2018-Jul-09 11:25N 37°25' E 025°23'0 0.0
2018-Jul-09 10:52N 37°25' E 025°23'0 0.0
2018-Jul-09 10:01N 37°25' E 025°23'0 0.3
2018-Jul-09 09:55N 37°25' E 025°23'0 0.0
2018-Jul-09 09:22N 37°25' E 025°23'0 0.1
2018-Jul-09 08:46N 37°25' E 025°23'0 0.1
2018-Jul-09 08:28N 37°25' E 025°23'0 0.0
2018-Jul-09 07:58N 37°25' E 025°23'0 0.0
2018-Jul-09 07:28N 37°25' E 025°23'0 0.0
2018-Jul-09 06:58N 37°25' E 025°23'0 0.0
2018-Jul-09 06:25N 37°25' E 025°23'0 0.1
2018-Jul-09 06:01N 37°25' E 025°23'4 7.7
2018-Jul-09 05:30N 37°21' E 025°21'611.6
2018-Jul-09 05:01N 37°16' E 025°18'611.5
2018-Jul-09 04:30N 37°10' E 025°15'2 4.0
2018-Jul-09 03:54N 37°08' E 025°14'0 0.1
2018-Jul-09 03:30N 37°08' E 025°14'0 0.0
2018-Jul-09 01:42N 37°08' E 025°14'0 0.0
2018-Jul-09 00:42N 37°08' E 025°14'0 0.0
2018-Jul-09 00:12N 37°08' E 025°14'0 0.0
2018-Jul-08 23:54N 37°08' E 025°14'0 0.1
2018-Jul-08 23:30N 37°08' E 025°14'0 0.0
2018-Jul-08 23:00N 37°08' E 025°14'0 0.0
2018-Jul-08 22:30N 37°08' E 025°14'0 0.0
2018-Jul-08 21:54N 37°08' E 025°14'0 0.0
2018-Jul-08 21:18N 37°08' E 025°14'0 0.0
2018-Jul-08 19:48N 37°08' E 025°14'0 0.0
2018-Jul-08 18:18N 37°08' E 025°14'0 0.0
2018-Jul-08 18:00N 37°08' E 025°14'0 0.0
2018-Jul-08 17:18N 37°08' E 025°14'0 0.0
2018-Jul-08 17:00N 37°08' E 025°14'0 0.0
2018-Jul-08 16:30N 37°08' E 025°14'0 0.0
2018-Jul-08 16:00N 37°08' E 025°14'0 0.0
2018-Jul-08 15:30N 37°08' E 025°14'0 0.0
2018-Jul-08 15:00N 37°08' E 025°14'0 0.0
2018-Jul-08 14:30N 37°08' E 025°14'0 0.0
2018-Jul-08 14:00N 37°08' E 025°14'0 0.0
2018-Jul-08 13:30N 37°08' E 025°14'0 0.1
2018-Jul-08 12:54N 37°08' E 025°14'0 0.0
2018-Jul-08 12:24N 37°08' E 025°14'0 0.0
2018-Jul-08 11:54N 37°08' E 025°14'0 0.0
2018-Jul-08 11:24N 37°08' E 025°14'0 0.1
2018-Jul-08 11:00N 37°08' E 025°14'0 0.0
2018-Jul-08 10:24N 37°08' E 025°14'0 0.0
2018-Jul-08 09:54N 37°08' E 025°14'0 0.1
2018-Jul-08 09:30N 37°08' E 025°14'0 0.0
2018-Jul-08 08:54N 37°08' E 025°14'0 0.0
2018-Jul-08 08:24N 37°08' E 025°14'0 0.0
2018-Jul-08 07:54N 37°08' E 025°14'0 0.0
2018-Jul-08 07:24N 37°08' E 025°14'0 0.0
2018-Jul-08 06:54N 37°08' E 025°14'0 0.1
2018-Jul-08 06:30N 37°08' E 025°14'0 0.4
2018-Jul-08 05:58N 37°08' E 025°14'510.6
2018-Jul-08 05:30N 37°11' E 025°19'611.7
2018-Jul-08 04:59N 37°13' E 025°26'11 9.6
2018-Jul-08 03:52N 37°07' E 025°38'  

Dump ship's entire track history